createdAt,value
2023-05-07T00:00:14.956Z,1017.34
2023-05-07T00:01:15.258Z,1017.35
2023-05-07T00:02:14.928Z,1017.35
2023-05-07T00:03:15.158Z,1017.34
2023-05-07T00:04:15.074Z,1017.30
2023-05-07T00:05:15.215Z,1017.29
2023-05-07T00:06:14.878Z,1017.27
2023-05-07T00:07:14.897Z,1017.33
2023-05-07T00:08:14.882Z,1017.30
2023-05-07T00:09:14.871Z,1017.28
2023-05-07T00:10:14.835Z,1017.29
2023-05-07T00:11:14.827Z,1017.26
2023-05-07T00:12:14.835Z,1017.27
2023-05-07T00:13:14.903Z,1017.25
2023-05-07T00:14:14.830Z,1017.29
2023-05-07T00:15:14.806Z,1017.28
2023-05-07T00:16:14.806Z,1017.31
2023-05-07T00:17:15.089Z,1017.29
2023-05-07T00:18:14.770Z,1017.24
2023-05-07T00:19:14.752Z,1017.28
2023-05-07T00:20:14.771Z,1017.27
2023-05-07T00:21:14.714Z,1017.25
2023-05-07T00:22:14.723Z,1017.27
2023-05-07T00:23:14.689Z,1017.21
2023-05-07T00:24:14.686Z,1017.23
2023-05-07T00:25:14.695Z,1017.23
2023-05-07T00:26:14.683Z,1017.25
2023-05-07T00:27:14.649Z,1017.22
2023-05-07T00:28:14.652Z,1017.27
2023-05-07T00:29:14.630Z,1017.26
2023-05-07T00:30:14.656Z,1017.26
2023-05-07T00:31:14.626Z,1017.27
2023-05-07T00:32:14.696Z,1017.28
2023-05-07T00:33:14.605Z,1017.29
2023-05-07T00:34:14.585Z,1017.30
2023-05-07T00:35:14.585Z,1017.31
2023-05-07T00:36:14.574Z,1017.29
2023-05-07T00:37:14.549Z,1017.25
2023-05-07T00:38:14.549Z,1017.28
2023-05-07T00:39:14.532Z,1017.28
2023-05-07T00:40:14.552Z,1017.31
2023-05-07T00:41:14.521Z,1017.31
2023-05-07T00:42:14.504Z,1017.27
2023-05-07T00:43:14.486Z,1017.31
2023-05-07T00:44:14.505Z,1017.27
2023-05-07T00:45:14.463Z,1017.29
2023-05-07T00:46:14.539Z,1017.27
2023-05-07T00:47:14.471Z,1017.26
2023-05-07T00:48:15.351Z,1017.22
2023-05-07T00:49:14.412Z,1017.21
2023-05-07T00:50:14.638Z,1017.22
2023-05-07T00:51:14.417Z,1017.20
2023-05-07T00:52:14.399Z,1017.23
2023-05-07T00:53:14.375Z,1017.22
2023-05-07T00:54:14.385Z,1017.22
2023-05-07T00:55:14.372Z,1017.21
2023-05-07T00:56:14.353Z,1017.16
2023-05-07T00:57:14.327Z,1017.21
2023-05-07T00:58:14.343Z,1017.22
2023-05-07T00:59:14.316Z,1017.19
2023-05-07T01:00:14.808Z,1017.21
2023-05-07T01:01:14.352Z,1017.21
2023-05-07T01:02:14.276Z,1017.18
2023-05-07T01:03:14.260Z,1017.20
2023-05-07T01:04:14.361Z,1017.23
2023-05-07T01:05:14.267Z,1017.24
2023-05-07T01:06:14.267Z,1017.23
2023-05-07T01:07:14.210Z,1017.23
2023-05-07T01:08:14.214Z,1017.24
2023-05-07T01:09:14.214Z,1017.24
2023-05-07T01:10:14.364Z,1017.26
2023-05-07T01:11:14.198Z,1017.25
2023-05-07T01:12:14.189Z,1017.25
2023-05-07T01:13:14.188Z,1017.27
2023-05-07T01:14:14.148Z,1017.28
2023-05-07T01:15:14.147Z,1017.29
2023-05-07T01:16:14.135Z,1017.31
2023-05-07T01:17:14.260Z,1017.29
2023-05-07T01:18:14.112Z,1017.30
2023-05-07T01:19:14.101Z,1017.31
2023-05-07T01:20:14.294Z,1017.30
2023-05-07T01:21:14.123Z,1017.30
2023-05-07T01:22:14.062Z,1017.32
2023-05-07T01:23:14.040Z,1017.32
2023-05-07T01:24:14.040Z,1017.28
2023-05-07T01:25:14.025Z,1017.29
2023-05-07T01:26:14.048Z,1017.28
2023-05-07T01:27:14.014Z,1017.29
2023-05-07T01:28:13.997Z,1017.26
2023-05-07T01:29:13.974Z,1017.29
2023-05-07T01:30:14.270Z,1017.27
2023-05-07T01:31:13.999Z,1017.31
2023-05-07T01:32:13.992Z,1017.25
2023-05-07T01:33:13.933Z,1017.28
2023-05-07T01:34:13.940Z,1017.28
2023-05-07T01:35:13.924Z,1017.30
2023-05-07T01:36:13.905Z,1017.29
2023-05-07T01:37:13.913Z,1017.26
2023-05-07T01:38:13.910Z,1017.28
2023-05-07T01:39:13.872Z,1017.30
2023-05-07T01:40:13.862Z,1017.33
2023-05-07T01:41:13.869Z,1017.34
2023-05-07T01:42:13.846Z,1017.32
2023-05-07T01:43:13.844Z,1017.32
2023-05-07T01:44:13.832Z,1017.32
2023-05-07T01:45:13.816Z,1017.33
2023-05-07T01:46:13.825Z,1017.36
2023-05-07T01:47:13.768Z,1017.34
2023-05-07T01:48:13.834Z,1017.37
2023-05-07T01:49:13.757Z,1017.35
2023-05-07T01:50:14.096Z,1017.31
2023-05-07T01:51:13.745Z,1017.34
2023-05-07T01:52:13.723Z,1017.33
2023-05-07T01:53:13.749Z,1017.31
2023-05-07T01:54:13.724Z,1017.35
2023-05-07T01:55:13.694Z,1017.33
2023-05-07T01:56:13.688Z,1017.35
2023-05-07T01:57:13.676Z,1017.36
2023-05-07T01:58:13.659Z,1017.39
2023-05-07T01:59:13.709Z,1017.41
2023-05-07T02:00:13.902Z,1017.41
2023-05-07T02:01:13.707Z,1017.47
2023-05-07T02:02:13.687Z,1017.42
2023-05-07T02:03:13.742Z,1017.46
2023-05-07T02:04:13.719Z,1017.51
2023-05-07T02:05:13.595Z,1017.48
2023-05-07T02:06:13.582Z,1017.52
2023-05-07T02:07:13.598Z,1017.48
2023-05-07T02:08:13.602Z,1017.48
2023-05-07T02:09:13.554Z,1017.49
2023-05-07T02:10:13.672Z,1017.48
2023-05-07T02:11:13.517Z,1017.47
2023-05-07T02:12:13.516Z,1017.47
2023-05-07T02:13:13.588Z,1017.51
2023-05-07T02:14:13.498Z,1017.45
2023-05-07T02:15:13.501Z,1017.50
2023-05-07T02:16:13.497Z,1017.50
2023-05-07T02:17:13.473Z,1017.52
2023-05-07T02:18:13.438Z,1017.53
2023-05-07T02:19:13.443Z,1017.49
2023-05-07T02:20:13.458Z,1017.51
2023-05-07T02:21:13.429Z,1017.52
2023-05-07T02:22:13.411Z,1017.50
2023-05-07T02:23:13.398Z,1017.52
2023-05-07T02:24:13.376Z,1017.54
2023-05-07T02:25:13.396Z,1017.57
2023-05-07T02:26:13.363Z,1017.58
2023-05-07T02:27:13.352Z,1017.56
2023-05-07T02:28:13.362Z,1017.55
2023-05-07T02:29:13.337Z,1017.58
2023-05-07T02:30:13.325Z,1017.52
2023-05-07T02:31:13.312Z,1017.53
2023-05-07T02:32:13.434Z,1017.55
2023-05-07T02:33:13.578Z,1017.52
2023-05-07T02:34:13.260Z,1017.56
2023-05-07T02:35:13.263Z,1017.55
2023-05-07T02:36:13.271Z,1017.56
2023-05-07T02:37:13.236Z,1017.56
2023-05-07T02:38:13.225Z,1017.59
2023-05-07T02:39:13.222Z,1017.58
2023-05-07T02:40:13.390Z,1017.60
2023-05-07T02:41:13.212Z,1017.63
2023-05-07T02:42:13.186Z,1017.62
2023-05-07T02:43:13.218Z,1017.63
2023-05-07T02:44:13.176Z,1017.61
2023-05-07T02:45:13.170Z,1017.64
2023-05-07T02:46:13.207Z,1017.63
2023-05-07T02:47:13.142Z,1017.64
2023-05-07T02:48:13.138Z,1017.63
2023-05-07T02:49:13.120Z,1017.65
2023-05-07T02:50:13.570Z,1017.58
2023-05-07T02:51:13.087Z,1017.64
2023-05-07T02:52:13.073Z,1017.63
2023-05-07T02:53:13.062Z,1017.64
2023-05-07T02:54:13.054Z,1017.66
2023-05-07T02:55:13.150Z,1017.65
2023-05-07T02:56:13.013Z,1017.63
2023-05-07T02:57:13.024Z,1017.68
2023-05-07T02:58:13.033Z,1017.68
2023-05-07T02:59:12.993Z,1017.68
2023-05-07T03:00:13.112Z,1017.69
2023-05-07T03:01:12.984Z,1017.70
2023-05-07T03:02:12.962Z,1017.72
2023-05-07T03:03:12.987Z,1017.74
2023-05-07T03:04:13.006Z,1017.74
2023-05-07T03:05:12.941Z,1017.74
2023-05-07T03:06:12.928Z,1017.71
2023-05-07T03:07:12.911Z,1017.77
2023-05-07T03:08:12.908Z,1017.77
2023-05-07T03:09:12.892Z,1017.75
2023-05-07T03:10:13.160Z,1017.81
2023-05-07T03:11:12.880Z,1017.81
2023-05-07T03:12:12.841Z,1017.82
2023-05-07T03:13:12.910Z,1017.79
2023-05-07T03:14:12.816Z,1017.78
2023-05-07T03:15:12.826Z,1017.83
2023-05-07T03:16:12.851Z,1017.81
2023-05-07T03:17:12.815Z,1017.80
2023-05-07T03:18:12.932Z,1017.82
2023-05-07T03:19:12.788Z,1017.82
2023-05-07T03:20:13.228Z,1017.85
2023-05-07T03:21:12.759Z,1017.85
2023-05-07T03:22:12.747Z,1017.84
2023-05-07T03:23:12.732Z,1017.82
2023-05-07T03:24:12.723Z,1017.87
2023-05-07T03:25:12.718Z,1017.89
2023-05-07T03:26:12.725Z,1017.90
2023-05-07T03:27:12.705Z,1017.90
2023-05-07T03:28:12.683Z,1017.92
2023-05-07T03:29:12.668Z,1017.89
2023-05-07T03:30:12.846Z,1017.89
2023-05-07T03:31:12.683Z,1017.91
2023-05-07T03:32:12.644Z,1017.92
2023-05-07T03:33:12.622Z,1017.92
2023-05-07T03:34:12.603Z,1017.92
2023-05-07T03:35:12.612Z,1017.91
2023-05-07T03:36:12.581Z,1017.94
2023-05-07T03:37:12.558Z,1017.93
2023-05-07T03:38:12.559Z,1017.94
2023-05-07T03:39:12.605Z,1017.94
2023-05-07T03:40:12.798Z,1017.96
2023-05-07T03:41:12.516Z,1017.95
2023-05-07T03:42:12.525Z,1017.93
2023-05-07T03:43:12.512Z,1017.99
2023-05-07T03:44:12.490Z,1017.97
2023-05-07T03:45:12.489Z,1017.98
2023-05-07T03:46:12.491Z,1018.04
2023-05-07T03:47:12.487Z,1018.01
2023-05-07T03:48:12.543Z,1018.02
2023-05-07T03:49:12.468Z,1018.07
2023-05-07T03:50:12.795Z,1018.04
2023-05-07T03:51:12.405Z,1018.05
2023-05-07T03:52:12.402Z,1018.07
2023-05-07T03:53:12.379Z,1018.04
2023-05-07T03:54:12.387Z,1018.08
2023-05-07T03:55:12.401Z,1018.06
2023-05-07T03:56:12.361Z,1018.08
2023-05-07T03:57:12.344Z,1018.11
2023-05-07T03:58:12.348Z,1018.11
2023-05-07T03:59:12.321Z,1018.11
2023-05-07T04:00:12.607Z,1018.10
2023-05-07T04:01:12.313Z,1018.15
2023-05-07T04:02:12.316Z,1018.19
2023-05-07T04:03:12.432Z,1018.14
2023-05-07T04:04:12.390Z,1018.16
2023-05-07T04:05:12.253Z,1018.20
2023-05-07T04:06:12.258Z,1018.15
2023-05-07T04:07:12.274Z,1018.13
2023-05-07T04:08:12.250Z,1018.10
2023-05-07T04:09:12.227Z,1018.06
2023-05-07T04:10:12.495Z,1018.05
2023-05-07T04:11:12.182Z,1018.02
2023-05-07T04:12:12.317Z,1018.04
2023-05-07T04:13:12.213Z,1018.03
2023-05-07T04:14:12.160Z,1018.02
2023-05-07T04:15:12.151Z,1018.03
2023-05-07T04:16:12.185Z,1018.04
2023-05-07T04:17:12.147Z,1018.05
2023-05-07T04:18:12.130Z,1018.07
2023-05-07T04:19:12.109Z,1018.05
2023-05-07T04:20:12.327Z,1018.10
2023-05-07T04:21:12.076Z,1018.13
2023-05-07T04:22:12.072Z,1018.10
2023-05-07T04:23:12.063Z,1018.19
2023-05-07T04:24:12.056Z,1018.17
2023-05-07T04:25:12.031Z,1018.14
2023-05-07T04:26:12.051Z,1018.11
2023-05-07T04:27:12.026Z,1018.14
2023-05-07T04:28:12.029Z,1018.17
2023-05-07T04:29:11.988Z,1018.13
2023-05-07T04:30:12.368Z,1018.19
2023-05-07T04:31:11.975Z,1018.22
2023-05-07T04:32:12.129Z,1018.19
2023-05-07T04:33:11.970Z,1018.17
2023-05-07T04:34:11.930Z,1018.25
2023-05-07T04:35:11.914Z,1018.25
2023-05-07T04:36:11.983Z,1018.29
2023-05-07T04:37:11.902Z,1018.28
2023-05-07T04:38:11.908Z,1018.27
2023-05-07T04:39:11.897Z,1018.26
2023-05-07T04:40:12.270Z,1018.30
2023-05-07T04:41:11.849Z,1018.29
2023-05-07T04:42:11.867Z,1018.28
2023-05-07T04:43:11.840Z,1018.33
2023-05-07T04:44:11.858Z,1018.36
2023-05-07T04:45:11.821Z,1018.34
2023-05-07T04:46:11.877Z,1018.34
2023-05-07T04:47:11.799Z,1018.35
2023-05-07T04:48:11.778Z,1018.39
2023-05-07T04:49:11.792Z,1018.36
2023-05-07T04:50:12.179Z,1018.34
2023-05-07T04:51:11.754Z,1018.37
2023-05-07T04:52:11.749Z,1018.38
2023-05-07T04:53:11.721Z,1018.35
2023-05-07T04:54:11.717Z,1018.37
2023-05-07T04:55:11.714Z,1018.35
2023-05-07T04:56:11.695Z,1018.36
2023-05-07T04:57:11.667Z,1018.36
2023-05-07T04:58:11.658Z,1018.37
2023-05-07T04:59:11.676Z,1018.39
2023-05-07T05:00:11.919Z,1018.39
2023-05-07T05:01:11.696Z,1018.39
2023-05-07T05:02:11.619Z,1018.42
2023-05-07T05:03:11.709Z,1018.41
2023-05-07T05:04:11.703Z,1018.43
2023-05-07T05:05:11.610Z,1018.40
2023-05-07T05:06:11.596Z,1018.43
2023-05-07T05:07:11.560Z,1018.46
2023-05-07T05:08:11.557Z,1018.42
2023-05-07T05:09:11.572Z,1018.47
2023-05-07T05:10:11.786Z,1018.50
2023-05-07T05:11:11.554Z,1018.49
2023-05-07T05:12:11.522Z,1018.51
2023-05-07T05:13:11.504Z,1018.51
2023-05-07T05:14:11.495Z,1018.55
2023-05-07T05:15:11.526Z,1018.55
2023-05-07T05:16:11.526Z,1018.55
2023-05-07T05:17:11.520Z,1018.53
2023-05-07T05:18:11.469Z,1018.58
2023-05-07T05:19:11.462Z,1018.56
2023-05-07T05:20:11.663Z,1018.53
2023-05-07T05:21:11.431Z,1018.56
2023-05-07T05:22:11.431Z,1018.56
2023-05-07T05:23:11.391Z,1018.59
2023-05-07T05:24:11.400Z,1018.60
2023-05-07T05:25:11.362Z,1018.61
2023-05-07T05:26:11.363Z,1018.61
2023-05-07T05:27:11.357Z,1018.63
2023-05-07T05:28:11.379Z,1018.63
2023-05-07T05:29:11.337Z,1018.63
2023-05-07T05:30:11.535Z,1018.63
2023-05-07T05:31:11.393Z,1018.62
2023-05-07T05:32:11.322Z,1018.62
2023-05-07T05:33:11.317Z,1018.59
2023-05-07T05:34:11.292Z,1018.59
2023-05-07T05:35:11.252Z,1018.57
2023-05-07T05:36:11.250Z,1018.57
2023-05-07T05:37:11.237Z,1018.54
2023-05-07T05:38:11.273Z,1018.58
2023-05-07T05:39:11.228Z,1018.57
2023-05-07T05:40:11.395Z,1018.60
2023-05-07T05:41:11.208Z,1018.57
2023-05-07T05:42:11.185Z,1018.58
2023-05-07T05:43:11.214Z,1018.57
2023-05-07T05:44:11.200Z,1018.55
2023-05-07T05:45:11.168Z,1018.53
2023-05-07T05:46:11.226Z,1018.55
2023-05-07T05:47:11.138Z,1018.51
2023-05-07T05:48:11.160Z,1018.53
2023-05-07T05:49:11.104Z,1018.56
2023-05-07T05:50:11.388Z,1018.57
2023-05-07T05:51:11.112Z,1018.58
2023-05-07T05:52:11.639Z,1018.57
2023-05-07T05:53:11.077Z,1018.58
2023-05-07T05:54:11.102Z,1018.60
2023-05-07T05:55:11.056Z,1018.60
2023-05-07T05:56:11.153Z,1018.64
2023-05-07T05:57:11.128Z,1018.65
2023-05-07T05:58:11.013Z,1018.68
2023-05-07T05:59:11.408Z,1018.66
2023-05-07T06:00:11.246Z,1018.67
2023-05-07T06:01:10.998Z,1018.67
2023-05-07T06:02:11.047Z,1018.69
2023-05-07T06:03:11.000Z,1018.65
2023-05-07T06:04:10.997Z,1018.67
2023-05-07T06:05:11.061Z,1018.69
2023-05-07T06:06:10.925Z,1018.71
2023-05-07T06:07:10.919Z,1018.69
2023-05-07T06:08:10.894Z,1018.69
2023-05-07T06:09:10.879Z,1018.71
2023-05-07T06:10:11.224Z,1018.76
2023-05-07T06:11:11.040Z,1018.80
2023-05-07T06:12:10.859Z,1018.75
2023-05-07T06:13:10.887Z,1018.75
2023-05-07T06:14:10.856Z,1018.76
2023-05-07T06:15:10.825Z,1018.80
2023-05-07T06:16:10.842Z,1018.80
2023-05-07T06:17:10.806Z,1018.82
2023-05-07T06:18:10.815Z,1018.81
2023-05-07T06:19:10.819Z,1018.83
2023-05-07T06:20:11.109Z,1018.86
2023-05-07T06:21:10.744Z,1018.85
2023-05-07T06:22:10.777Z,1018.84
2023-05-07T06:23:10.739Z,1018.83
2023-05-07T06:24:10.729Z,1018.85
2023-05-07T06:25:10.692Z,1018.87
2023-05-07T06:26:10.705Z,1018.84
2023-05-07T06:27:10.691Z,1018.82
2023-05-07T06:28:10.672Z,1018.84
2023-05-07T06:29:10.676Z,1018.83
2023-05-07T06:30:10.856Z,1018.85
2023-05-07T06:31:10.630Z,1018.86
2023-05-07T06:32:10.741Z,1018.85
2023-05-07T06:33:10.654Z,1018.88
2023-05-07T06:34:10.660Z,1018.87
2023-05-07T06:35:10.604Z,1018.87
2023-05-07T06:36:10.572Z,1018.88
2023-05-07T06:37:10.615Z,1018.87
2023-05-07T06:38:10.553Z,1018.90
2023-05-07T06:39:10.551Z,1018.89
2023-05-07T06:40:10.727Z,1018.91
2023-05-07T06:41:10.542Z,1018.92
2023-05-07T06:42:10.518Z,1018.95
2023-05-07T06:43:10.512Z,1018.93
2023-05-07T06:44:10.512Z,1018.91
2023-05-07T06:45:10.499Z,1018.94
2023-05-07T06:46:10.537Z,1018.93
2023-05-07T06:47:10.486Z,1018.96
2023-05-07T06:48:10.480Z,1018.97
2023-05-07T06:49:10.445Z,1019.00
2023-05-07T06:50:10.611Z,1018.98
2023-05-07T06:51:10.429Z,1019.02
2023-05-07T06:52:10.420Z,1019.03
2023-05-07T06:53:10.413Z,1019.10
2023-05-07T06:54:10.393Z,1019.10
2023-05-07T06:55:10.390Z,1019.06
2023-05-07T06:56:10.361Z,1019.13
2023-05-07T06:57:10.357Z,1019.12
2023-05-07T06:58:10.351Z,1019.16
2023-05-07T06:59:10.341Z,1019.15
2023-05-07T07:00:10.795Z,1019.10
2023-05-07T07:01:10.348Z,1019.13
2023-05-07T07:02:10.303Z,1019.12
2023-05-07T07:03:10.322Z,1019.10
2023-05-07T07:04:10.302Z,1019.10
2023-05-07T07:05:10.396Z,1019.09
2023-05-07T07:06:10.267Z,1019.07
2023-05-07T07:07:10.248Z,1019.13
2023-05-07T07:08:10.245Z,1019.12
2023-05-07T07:09:10.218Z,1019.08
2023-05-07T07:10:10.400Z,1019.17
2023-05-07T07:11:10.201Z,1019.10
2023-05-07T07:12:10.195Z,1019.12
2023-05-07T07:13:10.248Z,1019.13
2023-05-07T07:14:10.169Z,1019.14
2023-05-07T07:15:10.169Z,1019.14
2023-05-07T07:16:10.225Z,1019.11
2023-05-07T07:17:10.130Z,1019.18
2023-05-07T07:18:10.213Z,1019.17
2023-05-07T07:19:10.113Z,1019.17
2023-05-07T07:20:11.852Z,1019.16
2023-05-07T07:21:10.102Z,1019.17
2023-05-07T07:22:10.118Z,1019.17
2023-05-07T07:23:10.079Z,1019.15
2023-05-07T07:24:10.067Z,1019.17
2023-05-07T07:25:10.821Z,1019.18
2023-05-07T07:26:10.038Z,1019.16
2023-05-07T07:27:10.029Z,1019.22
2023-05-07T07:28:10.063Z,1019.18
2023-05-07T07:29:10.041Z,1019.12
2023-05-07T07:30:10.175Z,1019.13
2023-05-07T07:31:10.042Z,1019.07
2023-05-07T07:32:09.959Z,1019.08
2023-05-07T07:33:10.101Z,1019.16
2023-05-07T07:34:09.941Z,1019.15
2023-05-07T07:35:09.980Z,1019.14
2023-05-07T07:36:09.944Z,1019.12
2023-05-07T07:37:09.929Z,1019.11
2023-05-07T07:38:09.901Z,1019.17
2023-05-07T07:39:09.894Z,1019.14
2023-05-07T07:40:10.321Z,1019.15
2023-05-07T07:41:09.872Z,1019.18
2023-05-07T07:42:09.903Z,1019.11
2023-05-07T07:43:09.846Z,1019.16
2023-05-07T07:44:09.906Z,1019.12
2023-05-07T07:45:09.859Z,1019.11
2023-05-07T07:46:09.812Z,1019.09
2023-05-07T07:47:09.851Z,1019.06
2023-05-07T07:48:09.875Z,1019.03
2023-05-07T07:49:09.797Z,1019.03
2023-05-07T07:50:09.980Z,1019.03
2023-05-07T07:51:09.777Z,1019.01
2023-05-07T07:52:09.758Z,1018.99
2023-05-07T07:53:09.734Z,1018.98
2023-05-07T07:54:09.711Z,1018.99
2023-05-07T07:55:09.786Z,1018.93
2023-05-07T07:56:09.706Z,1018.94
2023-05-07T07:57:09.703Z,1018.99
2023-05-07T07:58:09.683Z,1018.94
2023-05-07T07:59:09.650Z,1019.00
2023-05-07T08:00:09.738Z,1018.98
2023-05-07T08:01:09.665Z,1019.01
2023-05-07T08:02:09.688Z,1019.09
2023-05-07T08:03:09.824Z,1019.06
2023-05-07T08:04:09.658Z,1019.06
2023-05-07T08:05:09.617Z,1019.06
2023-05-07T08:06:09.611Z,1019.11
2023-05-07T08:07:09.568Z,1019.05
2023-05-07T08:08:09.609Z,1019.03
2023-05-07T08:09:09.536Z,1019.08
2023-05-07T08:10:09.680Z,1019.10
2023-05-07T08:11:09.541Z,1019.09
2023-05-07T08:12:09.513Z,1019.05
2023-05-07T08:13:09.546Z,1019.03
2023-05-07T08:14:09.508Z,1019.09
2023-05-07T08:15:09.479Z,1019.03
2023-05-07T08:16:09.514Z,1019.11
2023-05-07T08:17:09.490Z,1019.14
2023-05-07T08:18:09.500Z,1019.08
2023-05-07T08:19:09.439Z,1019.11
2023-05-07T08:20:09.469Z,1019.05
2023-05-07T08:21:09.440Z,1019.02
2023-05-07T08:22:09.425Z,1019.03
2023-05-07T08:23:09.435Z,1019.07
2023-05-07T08:24:09.408Z,1019.05
2023-05-07T08:25:09.361Z,1019.05
2023-05-07T08:26:09.360Z,1019.05
2023-05-07T08:27:09.363Z,1019.06
2023-05-07T08:28:10.081Z,1019.07
2023-05-07T08:29:09.349Z,1019.12
2023-05-07T08:30:09.492Z,1019.11
2023-05-07T08:31:09.367Z,1019.14
2023-05-07T08:32:09.310Z,1019.12
2023-05-07T08:33:09.353Z,1019.14
2023-05-07T08:34:10.159Z,1019.16
2023-05-07T08:35:09.270Z,1019.15
2023-05-07T08:36:09.288Z,1019.17
2023-05-07T08:37:09.283Z,1019.17
2023-05-07T08:38:09.235Z,1019.17
2023-05-07T08:39:09.239Z,1019.19
2023-05-07T08:40:11.400Z,1019.24
2023-05-07T08:41:09.209Z,1019.22
2023-05-07T08:42:09.213Z,1019.22
2023-05-07T08:43:09.182Z,1019.25
2023-05-07T08:44:09.162Z,1019.22
2023-05-07T08:45:09.155Z,1019.29
2023-05-07T08:46:10.355Z,1019.29
2023-05-07T08:47:09.151Z,1019.29
2023-05-07T08:48:09.151Z,1019.26
2023-05-07T08:49:09.100Z,1019.33
2023-05-07T08:50:09.275Z,1019.28
2023-05-07T08:51:09.083Z,1019.26
2023-05-07T08:52:10.209Z,1019.28
2023-05-07T08:53:09.049Z,1019.30
2023-05-07T08:54:09.042Z,1019.27
2023-05-07T08:55:09.203Z,1019.29
2023-05-07T08:56:09.049Z,1019.24
2023-05-07T08:57:09.019Z,1019.25
2023-05-07T08:58:09.013Z,1019.23
2023-05-07T08:59:09.001Z,1019.25
2023-05-07T09:00:08.997Z,1019.25
2023-05-07T09:01:08.981Z,1019.32
2023-05-07T09:02:09.898Z,1019.32
2023-05-07T09:03:09.033Z,1019.33
2023-05-07T09:04:08.988Z,1019.32
2023-05-07T09:05:09.123Z,1019.31
2023-05-07T09:06:08.922Z,1019.29
2023-05-07T09:07:08.920Z,1019.36
2023-05-07T09:08:08.920Z,1019.31
2023-05-07T09:09:09.377Z,1019.36
2023-05-07T09:10:09.052Z,1019.32
2023-05-07T09:11:09.004Z,1019.36
2023-05-07T09:12:08.859Z,1019.32
2023-05-07T09:13:08.929Z,1019.34
2023-05-07T09:14:09.644Z,1019.38
2023-05-07T09:15:08.897Z,1019.36
2023-05-07T09:16:08.903Z,1019.35
2023-05-07T09:17:08.801Z,1019.37
2023-05-07T09:18:08.980Z,1019.38
2023-05-07T09:19:08.781Z,1019.39
2023-05-07T09:20:10.858Z,1019.40
2023-05-07T09:21:08.798Z,1019.38
2023-05-07T09:22:08.778Z,1019.34
2023-05-07T09:23:08.822Z,1019.37
2023-05-07T09:24:08.829Z,1019.37
2023-05-07T09:25:08.729Z,1019.39
2023-05-07T09:26:09.686Z,1019.37
2023-05-07T09:27:08.719Z,1019.37
2023-05-07T09:28:08.679Z,1019.40
2023-05-07T09:29:11.910Z,1019.39
2023-05-07T09:30:09.902Z,1019.37
2023-05-07T09:31:08.722Z,1019.41
2023-05-07T09:32:08.758Z,1019.38
2023-05-07T09:33:08.670Z,1019.37
2023-05-07T09:34:08.620Z,1019.44
2023-05-07T09:35:08.689Z,1019.43
2023-05-07T09:36:08.591Z,1019.42
2023-05-07T09:37:08.600Z,1019.43
2023-05-07T09:38:08.552Z,1019.38
2023-05-07T09:39:08.582Z,1019.32
2023-05-07T09:40:08.576Z,1019.36
2023-05-07T09:41:08.536Z,1019.28
2023-05-07T09:42:08.520Z,1019.36
2023-05-07T09:43:08.524Z,1019.32
2023-05-07T09:44:10.001Z,1019.33
2023-05-07T09:45:08.499Z,1019.37
2023-05-07T09:46:08.600Z,1019.35
2023-05-07T09:47:08.488Z,1019.34
2023-05-07T09:48:08.553Z,1019.38
2023-05-07T09:49:10.935Z,1019.36
2023-05-07T09:50:08.415Z,1019.32
2023-05-07T09:51:08.512Z,1019.31
2023-05-07T09:52:08.815Z,1019.31
2023-05-07T09:53:08.389Z,1019.39
2023-05-07T09:54:09.844Z,1019.35
2023-05-07T09:55:08.467Z,1019.37
2023-05-07T09:56:08.375Z,1019.35
2023-05-07T09:57:08.341Z,1019.40
2023-05-07T09:58:08.349Z,1019.37
2023-05-07T09:59:08.333Z,1019.38
2023-05-07T10:00:08.363Z,1019.35
2023-05-07T10:01:08.332Z,1019.36
2023-05-07T10:02:08.306Z,1019.35
2023-05-07T10:03:08.473Z,1019.39
2023-05-07T10:04:08.297Z,1019.37
2023-05-07T10:05:08.298Z,1019.36
2023-05-07T10:06:08.264Z,1019.30
2023-05-07T10:07:08.231Z,1019.35
2023-05-07T10:08:08.305Z,1019.33
2023-05-07T10:09:08.207Z,1019.37
2023-05-07T10:10:08.229Z,1019.42
2023-05-07T10:11:08.242Z,1019.39
2023-05-07T10:12:08.206Z,1019.42
2023-05-07T10:13:08.194Z,1019.41
2023-05-07T10:14:08.153Z,1019.42
2023-05-07T10:15:08.143Z,1019.46
2023-05-07T10:16:08.164Z,1019.45
2023-05-07T10:17:08.145Z,1019.42
2023-05-07T10:18:08.203Z,1019.41
2023-05-07T10:19:08.108Z,1019.39
2023-05-07T10:20:08.605Z,1019.39
2023-05-07T10:21:08.090Z,1019.37
2023-05-07T10:22:08.071Z,1019.48
2023-05-07T10:23:08.068Z,1019.45
2023-05-07T10:24:08.047Z,1019.44
2023-05-07T10:25:09.157Z,1019.46
2023-05-07T10:26:08.044Z,1019.49
2023-05-07T10:27:08.075Z,1019.46
2023-05-07T10:28:08.017Z,1019.48
2023-05-07T10:29:07.983Z,1019.43
2023-05-07T10:30:08.012Z,1019.50
2023-05-07T10:31:08.026Z,1019.44
2023-05-07T10:32:07.969Z,1019.48
2023-05-07T10:33:08.086Z,1019.43
2023-05-07T10:34:07.926Z,1019.50
2023-05-07T10:35:08.765Z,1019.50
2023-05-07T10:36:07.926Z,1019.44
2023-05-07T10:37:07.921Z,1019.47
2023-05-07T10:38:07.949Z,1019.49
2023-05-07T10:39:07.892Z,1019.48
2023-05-07T10:40:07.942Z,1019.43
2023-05-07T10:41:07.858Z,1019.38
2023-05-07T10:42:07.857Z,1019.33
2023-05-07T10:43:10.558Z,1019.32
2023-05-07T10:44:07.811Z,1019.40
2023-05-07T10:45:07.805Z,1019.41
2023-05-07T10:46:07.812Z,1019.36
2023-05-07T10:47:07.797Z,1019.36
2023-05-07T10:48:21.088Z,1019.33
2023-05-07T10:49:08.844Z,1019.35
2023-05-07T10:50:08.355Z,1019.35
2023-05-07T10:51:08.074Z,1019.31
2023-05-07T10:52:07.740Z,1019.33
2023-05-07T10:53:07.790Z,1019.33
2023-05-07T10:54:07.704Z,1019.39
2023-05-07T10:55:07.708Z,1019.35
2023-05-07T10:56:07.694Z,1019.35
2023-05-07T10:57:07.691Z,1019.33
2023-05-07T10:58:09.024Z,1019.34
2023-05-07T10:59:07.687Z,1019.35
2023-05-07T11:00:07.646Z,1019.37
2023-05-07T11:01:07.663Z,1019.38
2023-05-07T11:02:07.804Z,1019.37
2023-05-07T11:03:07.994Z,1019.41
2023-05-07T11:04:07.627Z,1019.38
2023-05-07T11:05:07.901Z,1019.40
2023-05-07T11:06:07.568Z,1019.41
2023-05-07T11:07:07.576Z,1019.37
2023-05-07T11:08:07.538Z,1019.33
2023-05-07T11:09:07.578Z,1019.36
2023-05-07T11:10:07.582Z,1019.30
2023-05-07T11:11:07.554Z,1019.37
2023-05-07T11:12:07.554Z,1019.36
2023-05-07T11:13:07.583Z,1019.39
2023-05-07T11:14:07.481Z,1019.37
2023-05-07T11:15:07.513Z,1019.35
2023-05-07T11:16:07.482Z,1019.31
2023-05-07T11:17:07.505Z,1019.29
2023-05-07T11:18:07.483Z,1019.39
2023-05-07T11:19:07.438Z,1019.31
2023-05-07T11:20:07.429Z,1019.31
2023-05-07T11:21:07.409Z,1019.32
2023-05-07T11:22:09.822Z,1019.31
2023-05-07T11:23:07.418Z,1019.33
2023-05-07T11:24:07.378Z,1019.34
2023-05-07T11:25:07.389Z,1019.32
2023-05-07T11:26:07.347Z,1019.24
2023-05-07T11:27:07.349Z,1019.30
2023-05-07T11:28:07.331Z,1019.29
2023-05-07T11:29:07.334Z,1019.25
2023-05-07T11:30:07.304Z,1019.26
2023-05-07T11:31:07.354Z,1019.23
2023-05-07T11:32:07.554Z,1019.24
2023-05-07T11:33:07.335Z,1019.25
2023-05-07T11:34:07.262Z,1019.21
2023-05-07T11:35:07.271Z,1019.21
2023-05-07T11:36:07.250Z,1019.22
2023-05-07T11:37:07.237Z,1019.24
2023-05-07T11:38:07.224Z,1019.22
2023-05-07T11:39:07.216Z,1019.24
2023-05-07T11:40:07.241Z,1019.27
2023-05-07T11:41:07.190Z,1019.23
2023-05-07T11:42:07.183Z,1019.18
2023-05-07T11:43:07.172Z,1019.26
2023-05-07T11:44:07.156Z,1019.30
2023-05-07T11:45:07.139Z,1019.33
2023-05-07T11:46:07.162Z,1019.28
2023-05-07T11:47:07.127Z,1019.30
2023-05-07T11:48:07.190Z,1019.26
2023-05-07T11:49:07.085Z,1019.21
2023-05-07T11:50:07.117Z,1019.21
2023-05-07T11:51:07.072Z,1019.22
2023-05-07T11:52:07.045Z,1019.17
2023-05-07T11:53:07.055Z,1019.15
2023-05-07T11:54:07.036Z,1019.14
2023-05-07T11:55:07.021Z,1019.19
2023-05-07T11:56:18.174Z,1019.23
2023-05-07T11:57:07.010Z,1019.24
2023-05-07T11:58:08.875Z,1019.24
2023-05-07T11:59:07.368Z,1019.25
2023-05-07T12:00:06.951Z,1019.25
2023-05-07T12:01:07.137Z,1019.25
2023-05-07T12:02:07.030Z,1019.14
2023-05-07T12:03:07.199Z,1019.25
2023-05-07T12:04:07.020Z,1019.26
2023-05-07T12:05:06.945Z,1019.33